VJT14T EDDL-EDDH
Flight info
| Callsign | VJT14T |
|---|---|
| Flight time | 0h 46m |
| Altitude | 35000 |
| Route | MEVEL1Z/05R MEVEL Y850 BASUM/N0493F340 Y850 PIXUR/N0494F330 Y850 MUBZI M105 RIBSO RIBSO7A |
| Aircraft | C750/M-SBDE3FGHRWXY/S |
Departure
| Time | 2026-05-06 13:48 |
|---|---|
| Airport | Düsseldorf Airport (EDDL) |
Arrival
| Time | 2026-05-06 14:34 |
|---|---|
| Airport | Hamburg Helmut Schmidt Airport (EDDH) |
| Time | Latitude | Longitude | Altitude | Speed | Heading |
|---|---|---|---|---|---|
| 2026-05-06 13:23 | 51.27530 | 6.75342 | 119 ft | 0 kts | 244° |
| 2026-05-06 13:43 | 51.27513 | 6.75317 | 118 ft | 6 kts | 199° |
| 2026-05-06 13:44 | 51.27479 | 6.75331 | 118 ft | 7 kts | 148° |
| 2026-05-06 13:44 | 51.27463 | 6.75414 | 121 ft | 8 kts | 92° |
| 2026-05-06 13:44 | 51.27487 | 6.75497 | 122 ft | 11 kts | 63° |
| 2026-05-06 13:44 | 51.27510 | 6.75570 | 124 ft | 3 kts | 62° |
| 2026-05-06 13:45 | 51.27542 | 6.75579 | 125 ft | 7 kts | 334° |
| 2026-05-06 13:45 | 51.27635 | 6.75514 | 123 ft | 7 kts | 340° |
| 2026-05-06 13:45 | 51.27706 | 6.75458 | 122 ft | 11 kts | 332° |
| 2026-05-06 13:46 | 51.27764 | 6.75410 | 122 ft | 8 kts | 333° |
| 2026-05-06 13:46 | 51.27817 | 6.75367 | 120 ft | 13 kts | 333° |
| 2026-05-06 13:46 | 51.27889 | 6.75309 | 119 ft | 10 kts | 334° |
| 2026-05-06 13:46 | 51.27944 | 6.75270 | 117 ft | 8 kts | 346° |
| 2026-05-06 13:47 | 51.28002 | 6.75293 | 119 ft | 7 kts | 30° |
| 2026-05-06 13:47 | 51.28023 | 6.75329 | 122 ft | 2 kts | 53° |
| 2026-05-06 13:47 | 51.28089 | 6.75468 | 123 ft | 59 kts | 53° |
| 2026-05-06 13:47 | 51.28549 | 6.76430 | 136 ft | 143 kts | 50° |
| 2026-05-06 13:48 | 51.29165 | 6.77772 | 542 ft | 159 kts | 50° |
| 2026-05-06 13:48 | 51.29857 | 6.79366 | 849 ft | 193 kts | 53° |
| 2026-05-06 13:48 | 51.30662 | 6.81354 | 919 ft | 230 kts | 55° |
| 2026-05-06 13:48 | 51.31613 | 6.83561 | 1186 ft | 255 kts | 48° |
| 2026-05-06 13:49 | 51.32818 | 6.85588 | 2397 ft | 244 kts | 45° |
| 2026-05-06 13:49 | 51.33770 | 6.87592 | 3224 ft | 222 kts | 54° |
| 2026-05-06 13:49 | 51.34800 | 6.89690 | 3495 ft | 255 kts | 39° |
| 2026-05-06 13:49 | 51.36414 | 6.90823 | 4557 ft | 252 kts | 12° |
| 2026-05-06 13:50 | 51.38171 | 6.91327 | 5570 ft | 260 kts | 8° |
| 2026-05-06 13:50 | 51.39987 | 6.91760 | 6572 ft | 268 kts | 8° |
| 2026-05-06 13:50 | 51.41843 | 6.92244 | 7632 ft | 273 kts | 9° |
| 2026-05-06 13:50 | 51.43736 | 6.92763 | 8774 ft | 278 kts | 9° |
| 2026-05-06 13:51 | 51.45664 | 6.93282 | 9829 ft | 284 kts | 8° |
| 2026-05-06 13:51 | 51.47661 | 6.93810 | 10458 ft | 301 kts | 8° |
| 2026-05-06 13:51 | 51.49832 | 6.94257 | 10635 ft | 329 kts | 1° |
| 2026-05-06 13:51 | 51.52194 | 6.93798 | 10811 ft | 351 kts | 348° |
| 2026-05-06 13:52 | 51.54583 | 6.92982 | 11731 ft | 351 kts | 347° |
| 2026-05-06 13:52 | 51.56977 | 6.92285 | 12425 ft | 358 kts | 352° |
| 2026-05-06 13:52 | 51.59468 | 6.92779 | 13101 ft | 366 kts | 18° |
| 2026-05-06 13:52 | 51.61694 | 6.94760 | 13893 ft | 368 kts | 39° |
| 2026-05-06 13:53 | 51.63553 | 6.97571 | 14680 ft | 368 kts | 44° |
| 2026-05-06 13:53 | 51.65393 | 7.00469 | 15312 ft | 373 kts | 44° |
| 2026-05-06 13:53 | 51.67278 | 7.03376 | 15983 ft | 377 kts | 43° |
| 2026-05-06 13:53 | 51.69197 | 7.06298 | 16698 ft | 381 kts | 43° |
| 2026-05-06 13:54 | 51.71129 | 7.09271 | 17386 ft | 387 kts | 43° |
| 2026-05-06 13:54 | 51.73072 | 7.12290 | 18130 ft | 390 kts | 43° |
| 2026-05-06 13:54 | 51.75044 | 7.15346 | 18741 ft | 396 kts | 43° |
| 2026-05-06 13:54 | 51.77016 | 7.18391 | 19409 ft | 399 kts | 43° |
| 2026-05-06 13:55 | 51.79032 | 7.21512 | 20078 ft | 404 kts | 43° |
| 2026-05-06 13:55 | 51.81073 | 7.24683 | 20760 ft | 409 kts | 43° |
| 2026-05-06 13:55 | 51.83131 | 7.27886 | 21454 ft | 414 kts | 43° |
| 2026-05-06 13:55 | 51.85230 | 7.31150 | 22043 ft | 420 kts | 43° |
| 2026-05-06 13:56 | 51.87338 | 7.34434 | 22784 ft | 422 kts | 43° |
| 2026-05-06 13:56 | 51.89467 | 7.37757 | 23383 ft | 428 kts | 43° |
| 2026-05-06 13:56 | 51.91614 | 7.41114 | 23952 ft | 430 kts | 43° |
| 2026-05-06 13:56 | 51.93773 | 7.44493 | 24493 ft | 433 kts | 43° |
| 2026-05-06 13:57 | 51.95914 | 7.47887 | 24727 ft | 424 kts | 46° |
| 2026-05-06 13:57 | 51.97972 | 7.51238 | 24687 ft | 417 kts | 44° |
| 2026-05-06 13:57 | 52.00147 | 7.54557 | 24787 ft | 436 kts | 42° |
| 2026-05-06 13:57 | 52.02350 | 7.57871 | 25360 ft | 438 kts | 43° |
| 2026-05-06 13:58 | 52.04524 | 7.61341 | 26029 ft | 439 kts | 44° |
| 2026-05-06 13:58 | 52.06679 | 7.64843 | 26706 ft | 439 kts | 44° |
| 2026-05-06 13:58 | 52.08875 | 7.68303 | 27279 ft | 442 kts | 43° |
| 2026-05-06 13:58 | 52.11105 | 7.71769 | 27860 ft | 444 kts | 44° |
| 2026-05-06 13:59 | 52.13327 | 7.75288 | 28444 ft | 447 kts | 45° |
| 2026-05-06 13:59 | 52.15549 | 7.78854 | 29025 ft | 450 kts | 45° |
| 2026-05-06 13:59 | 52.17794 | 7.82432 | 29577 ft | 453 kts | 45° |
| 2026-05-06 13:59 | 52.20064 | 7.86023 | 30112 ft | 456 kts | 45° |
| 2026-05-06 14:00 | 52.22349 | 7.89659 | 30459 ft | 462 kts | 45° |
| 2026-05-06 14:00 | 52.24619 | 7.93298 | 30813 ft | 464 kts | 45° |
| 2026-05-06 14:00 | 52.26939 | 7.97017 | 30984 ft | 473 kts | 45° |
| 2026-05-06 14:00 | 52.29312 | 8.00808 | 30985 ft | 481 kts | 44° |
| 2026-05-06 14:01 | 52.34124 | 8.08529 | 30990 ft | 486 kts | 45° |
| 2026-05-06 14:01 | 52.38961 | 8.16323 | 30990 ft | 487 kts | 45° |
| 2026-05-06 14:02 | 52.42984 | 8.22818 | 30994 ft | 488 kts | 45° |
| 2026-05-06 14:02 | 52.47815 | 8.30656 | 30999 ft | 488 kts | 45° |
| 2026-05-06 14:03 | 52.50177 | 8.34494 | 30759 ft | 463 kts | 46° |
| 2026-05-06 14:03 | 52.52442 | 8.38187 | 29385 ft | 459 kts | 46° |
| 2026-05-06 14:03 | 52.54672 | 8.41825 | 28665 ft | 449 kts | 46° |
| 2026-05-06 14:03 | 52.56889 | 8.45438 | 27965 ft | 447 kts | 45° |
| 2026-05-06 14:04 | 52.59062 | 8.48987 | 27305 ft | 446 kts | 45° |
| 2026-05-06 14:04 | 52.61244 | 8.52561 | 26654 ft | 441 kts | 45° |
| 2026-05-06 14:04 | 52.63406 | 8.56109 | 26015 ft | 438 kts | 45° |
| 2026-05-06 14:04 | 52.65552 | 8.59632 | 25399 ft | 433 kts | 46° |
| 2026-05-06 14:05 | 52.67687 | 8.63141 | 24786 ft | 432 kts | 46° |
| 2026-05-06 14:05 | 52.69808 | 8.66633 | 24178 ft | 428 kts | 46° |
| 2026-05-06 14:05 | 52.71903 | 8.70091 | 23591 ft | 426 kts | 46° |
| 2026-05-06 14:05 | 52.74012 | 8.73474 | 22931 ft | 421 kts | 42° |
| 2026-05-06 14:06 | 52.76431 | 8.76176 | 22138 ft | 421 kts | 29° |
| 2026-05-06 14:06 | 52.79138 | 8.77969 | 21376 ft | 417 kts | 16° |
| 2026-05-06 14:06 | 52.81981 | 8.78773 | 20632 ft | 415 kts | 4° |
| 2026-05-06 14:06 | 52.84853 | 8.78802 | 19943 ft | 412 kts | 359° |
| 2026-05-06 14:07 | 52.87696 | 8.78765 | 19271 ft | 406 kts | 359° |
| 2026-05-06 14:07 | 52.90510 | 8.78755 | 18609 ft | 404 kts | 359° |
| 2026-05-06 14:07 | 52.93314 | 8.78743 | 17928 ft | 401 kts | 360° |
| 2026-05-06 14:07 | 52.96044 | 8.78735 | 17188 ft | 393 kts | 1° |
| 2026-05-06 14:08 | 52.98749 | 8.79206 | 16429 ft | 389 kts | 9° |
| 2026-05-06 14:08 | 53.01410 | 8.79862 | 15717 ft | 384 kts | 9° |
| 2026-05-06 14:08 | 53.04026 | 8.80485 | 15023 ft | 375 kts | 9° |
| 2026-05-06 14:08 | 53.06600 | 8.81046 | 14338 ft | 371 kts | 9° |
| 2026-05-06 14:09 | 53.09133 | 8.81603 | 13668 ft | 365 kts | 9° |
| 2026-05-06 14:09 | 53.11629 | 8.82179 | 12926 ft | 359 kts | 9° |
| 2026-05-06 14:09 | 53.14084 | 8.82749 | 12196 ft | 354 kts | 10° |
| 2026-05-06 14:09 | 53.16508 | 8.83300 | 11483 ft | 353 kts | 10° |
| 2026-05-06 14:10 | 53.18964 | 8.83856 | 11014 ft | 353 kts | 9° |
| 2026-05-06 14:10 | 53.21424 | 8.84410 | 11024 ft | 358 kts | 9° |
| 2026-05-06 14:10 | 53.23898 | 8.84976 | 11015 ft | 360 kts | 10° |
| 2026-05-06 14:10 | 53.26338 | 8.85551 | 11007 ft | 358 kts | 9° |
| 2026-05-06 14:11 | 53.28814 | 8.86119 | 11003 ft | 358 kts | 9° |
| 2026-05-06 14:11 | 53.31295 | 8.86681 | 11001 ft | 360 kts | 9° |
| 2026-05-06 14:11 | 53.33776 | 8.87255 | 10998 ft | 360 kts | 10° |
| 2026-05-06 14:11 | 53.36158 | 8.88439 | 10992 ft | 355 kts | 24° |
| 2026-05-06 14:12 | 53.38433 | 8.90106 | 11019 ft | 356 kts | 25° |
| 2026-05-06 14:12 | 53.40719 | 8.91751 | 11001 ft | 357 kts | 24° |
| 2026-05-06 14:12 | 53.43019 | 8.93369 | 11002 ft | 358 kts | 24° |
| 2026-05-06 14:12 | 53.45326 | 8.94970 | 11002 ft | 360 kts | 24° |
| 2026-05-06 14:13 | 53.47620 | 8.96599 | 11009 ft | 360 kts | 25° |
| 2026-05-06 14:13 | 53.49911 | 8.98253 | 11014 ft | 359 kts | 25° |
| 2026-05-06 14:13 | 53.52181 | 8.99877 | 11010 ft | 358 kts | 24° |
| 2026-05-06 14:13 | 53.54414 | 9.01699 | 10973 ft | 355 kts | 33° |
| 2026-05-06 14:14 | 53.56438 | 9.04109 | 11002 ft | 358 kts | 37° |
| 2026-05-06 14:14 | 53.58444 | 9.06579 | 11006 ft | 359 kts | 37° |
| 2026-05-06 14:14 | 53.60469 | 9.08995 | 11007 ft | 358 kts | 36° |
| 2026-05-06 14:14 | 53.62495 | 9.11384 | 11009 ft | 354 kts | 36° |
| 2026-05-06 14:15 | 53.64514 | 9.13799 | 11010 ft | 356 kts | 37° |
| 2026-05-06 14:15 | 53.66546 | 9.16257 | 11008 ft | 361 kts | 35° |
| 2026-05-06 14:15 | 53.68590 | 9.18715 | 11005 ft | 361 kts | 35° |
| 2026-05-06 14:15 | 53.70627 | 9.21156 | 11006 ft | 359 kts | 35° |
| 2026-05-06 14:16 | 53.72668 | 9.23611 | 11006 ft | 358 kts | 35° |
| 2026-05-06 14:16 | 53.74678 | 9.26038 | 11005 ft | 361 kts | 35° |
| 2026-05-06 14:16 | 53.76688 | 9.28558 | 10993 ft | 361 kts | 39° |
| 2026-05-06 14:16 | 53.78193 | 9.31904 | 10962 ft | 361 kts | 63° |
| 2026-05-06 14:17 | 53.78852 | 9.35989 | 10982 ft | 361 kts | 82° |
| 2026-05-06 14:17 | 53.78646 | 9.40063 | 10900 ft | 335 kts | 106° |
| 2026-05-06 14:17 | 53.77538 | 9.43334 | 10567 ft | 310 kts | 128° |
| 2026-05-06 14:17 | 53.76158 | 9.45905 | 10457 ft | 282 kts | 133° |
| 2026-05-06 14:18 | 53.74850 | 9.48162 | 10439 ft | 256 kts | 134° |
| 2026-05-06 14:18 | 53.73625 | 9.50250 | 10018 ft | 250 kts | 134° |
| 2026-05-06 14:18 | 53.72386 | 9.52354 | 9401 ft | 253 kts | 133° |
| 2026-05-06 14:18 | 53.71148 | 9.54424 | 8913 ft | 249 kts | 134° |
| 2026-05-06 14:19 | 53.69921 | 9.56470 | 8428 ft | 246 kts | 134° |
| 2026-05-06 14:19 | 53.68709 | 9.58483 | 7991 ft | 243 kts | 134° |
| 2026-05-06 14:19 | 53.67502 | 9.60467 | 7546 ft | 240 kts | 133° |
| 2026-05-06 14:19 | 53.66307 | 9.62367 | 7156 ft | 245 kts | 135° |
| 2026-05-06 14:20 | 53.64771 | 9.63562 | 6823 ft | 246 kts | 173° |
| 2026-05-06 14:20 | 53.63117 | 9.62949 | 6881 ft | 249 kts | 200° |
| 2026-05-06 14:20 | 53.61539 | 9.61682 | 7028 ft | 250 kts | 205° |
| 2026-05-06 14:20 | 53.59980 | 9.60406 | 7019 ft | 250 kts | 203° |
| 2026-05-06 14:21 | 53.58422 | 9.59105 | 7019 ft | 246 kts | 204° |
| 2026-05-06 14:21 | 53.56901 | 9.57820 | 6573 ft | 247 kts | 204° |
| 2026-05-06 14:21 | 53.55332 | 9.56499 | 6048 ft | 256 kts | 204° |
| 2026-05-06 14:21 | 53.53904 | 9.54839 | 5934 ft | 249 kts | 226° |
| 2026-05-06 14:22 | 53.52871 | 9.52520 | 6009 ft | 249 kts | 233° |
| 2026-05-06 14:22 | 53.51899 | 9.50153 | 6007 ft | 250 kts | 234° |
| 2026-05-06 14:22 | 53.50914 | 9.47764 | 6016 ft | 243 kts | 234° |
| 2026-05-06 14:22 | 53.49999 | 9.45528 | 5680 ft | 228 kts | 234° |
| 2026-05-06 14:23 | 53.49089 | 9.43306 | 5183 ft | 225 kts | 234° |
| 2026-05-06 14:23 | 53.48246 | 9.41249 | 5104 ft | 204 kts | 233° |
| 2026-05-06 14:23 | 53.47339 | 9.39468 | 4469 ft | 207 kts | 212° |
| 2026-05-06 14:23 | 53.45922 | 9.38968 | 3600 ft | 211 kts | 165° |
| 2026-05-06 14:24 | 53.44659 | 9.39987 | 3463 ft | 207 kts | 143° |
| 2026-05-06 14:24 | 53.43472 | 9.41193 | 4036 ft | 194 kts | 143° |
| 2026-05-06 14:24 | 53.42315 | 9.42355 | 4075 ft | 193 kts | 144° |
| 2026-05-06 14:24 | 53.41183 | 9.43501 | 3988 ft | 187 kts | 143° |
| 2026-05-06 14:25 | 53.40103 | 9.44602 | 3982 ft | 183 kts | 141° |
| 2026-05-06 14:25 | 53.39459 | 9.46294 | 3871 ft | 170 kts | 92° |
| 2026-05-06 14:25 | 53.39894 | 9.48069 | 3910 ft | 170 kts | 52° |
| 2026-05-06 14:25 | 53.40286 | 9.49899 | 4000 ft | 172 kts | 83° |
| 2026-05-06 14:26 | 53.40372 | 9.51910 | 4014 ft | 173 kts | 84° |
| 2026-05-06 14:26 | 53.40758 | 9.53763 | 3983 ft | 168 kts | 58° |
| 2026-05-06 14:26 | 53.41477 | 9.55350 | 4001 ft | 172 kts | 53° |
| 2026-05-06 14:26 | 53.42238 | 9.56929 | 3998 ft | 173 kts | 52° |
| 2026-05-06 14:27 | 53.43006 | 9.58480 | 3986 ft | 171 kts | 52° |
| 2026-05-06 14:27 | 53.43765 | 9.60006 | 3994 ft | 171 kts | 52° |
| 2026-05-06 14:27 | 53.44530 | 9.61543 | 4001 ft | 172 kts | 52° |
| 2026-05-06 14:27 | 53.45294 | 9.63081 | 4001 ft | 172 kts | 52° |
| 2026-05-06 14:28 | 53.46053 | 9.64609 | 4002 ft | 173 kts | 52° |
| 2026-05-06 14:28 | 53.46825 | 9.66163 | 4004 ft | 173 kts | 52° |
| 2026-05-06 14:28 | 53.47592 | 9.67706 | 4002 ft | 173 kts | 52° |
| 2026-05-06 14:28 | 53.48359 | 9.69252 | 4005 ft | 172 kts | 51° |
| 2026-05-06 14:29 | 53.49128 | 9.70798 | 4004 ft | 172 kts | 52° |
| 2026-05-06 14:29 | 53.49899 | 9.72354 | 3843 ft | 174 kts | 52° |
| 2026-05-06 14:29 | 53.50669 | 9.73904 | 3609 ft | 172 kts | 52° |
| 2026-05-06 14:29 | 53.51430 | 9.75425 | 3376 ft | 168 kts | 52° |
| 2026-05-06 14:30 | 53.52172 | 9.76923 | 3150 ft | 165 kts | 52° |
| 2026-05-06 14:30 | 53.52904 | 9.78398 | 2920 ft | 164 kts | 52° |
| 2026-05-06 14:30 | 53.53624 | 9.79842 | 2699 ft | 163 kts | 51° |
| 2026-05-06 14:30 | 53.54348 | 9.81299 | 2480 ft | 162 kts | 51° |
| 2026-05-06 14:31 | 53.55065 | 9.82745 | 2258 ft | 161 kts | 51° |
| 2026-05-06 14:31 | 53.55780 | 9.84186 | 2037 ft | 160 kts | 50° |
| 2026-05-06 14:31 | 53.56492 | 9.85624 | 1818 ft | 161 kts | 49° |
| 2026-05-06 14:31 | 53.57210 | 9.87059 | 1602 ft | 157 kts | 50° |
| 2026-05-06 14:32 | 53.57857 | 9.88366 | 1376 ft | 130 kts | 49° |
| 2026-05-06 14:32 | 53.58420 | 9.89504 | 1197 ft | 127 kts | 49° |
| 2026-05-06 14:32 | 53.58988 | 9.90648 | 1016 ft | 127 kts | 50° |
| 2026-05-06 14:32 | 53.59514 | 9.91714 | 838 ft | 111 kts | 49° |
| 2026-05-06 14:33 | 53.60000 | 9.92694 | 689 ft | 111 kts | 50° |
| 2026-05-06 14:33 | 53.60503 | 9.93699 | 536 ft | 110 kts | 48° |
| 2026-05-06 14:33 | 53.60978 | 9.94663 | 372 ft | 108 kts | 51° |
| 2026-05-06 14:33 | 53.61445 | 9.95621 | 238 ft | 108 kts | 50° |
| 2026-05-06 14:34 | 53.61930 | 9.96584 | 139 ft | 109 kts | 48° |
| 2026-05-06 14:34 | 53.62410 | 9.97546 | 42 ft | 100 kts | 49° |
| 2026-05-06 14:34 | 53.62782 | 9.98312 | 40 ft | 60 kts | 49° |
| 2026-05-06 14:34 | 53.63003 | 9.98752 | 42 ft | 46 kts | 50° |
| 2026-05-06 14:35 | 53.63097 | 9.99174 | 43 ft | 28 kts | 102° |
| 2026-05-06 14:35 | 53.63032 | 9.99245 | 43 ft | 10 kts | 218° |
| 2026-05-06 14:35 | 53.62990 | 9.99161 | 43 ft | 9 kts | 227° |
| 2026-05-06 14:35 | 53.62952 | 9.99083 | 43 ft | 9 kts | 232° |
| 2026-05-06 14:36 | 53.62913 | 9.99005 | 43 ft | 9 kts | 229° |
| 2026-05-06 14:36 | 53.62873 | 9.98929 | 43 ft | 9 kts | 228° |
| 2026-05-06 14:36 | 53.62833 | 9.98855 | 43 ft | 9 kts | 227° |
| 2026-05-06 14:36 | 53.62801 | 9.98799 | 43 ft | 5 kts | 208° |
| 2026-05-06 14:37 | 53.62772 | 9.98814 | 43 ft | 4 kts | 158° |
| 2026-05-06 14:37 | 53.62746 | 9.98838 | 43 ft | 4 kts | 149° |
| 2026-05-06 14:37 | 53.62720 | 9.98858 | 43 ft | 4 kts | 155° |
| 2026-05-06 14:37 | 53.62694 | 9.98879 | 43 ft | 4 kts | 154° |
| 2026-05-06 14:38 | 53.62670 | 9.98904 | 43 ft | 4 kts | 133° |
| 2026-05-06 14:38 | 53.62667 | 9.98933 | 43 ft | 2 kts | 77° |
| 2026-05-06 14:38 | 53.62674 | 9.98954 | 43 ft | 2 kts | 62° |
| 2026-05-06 14:38 | 53.62675 | 9.98958 | 43 ft | 0 kts | 62° |